Townsend, MT

7:43 PM MDT on September 17, 2014 (GMT -0600)
Gallatin | Change Station
CLOSE
Current Station
Airport
Location: Bozeman,
Elevation: 4475 ft
Nearby Weather Stations

Elev 4475 ft 45.79 °N, 111.16 °W | Updated 47 minutes ago

Mostly Cloudy
Mostly Cloudy
70 °F
Feels Like 70 °F
N
5
Wind Variable Wind from ENE

Today
High -- | Low -- °F
--% Chance of Precip.
Yesterday
High -- | Low -- °F
Precip. -- in
7:06 AM 7:33 PM
Waning Crescent, 31% visible
Pressure 29.87 in
Visibility 9.0 miles
Clouds Few 12000 ft
Dew Point 50 °F
Humidity 49%
Rainfall 0.00 in
Snow Depth 0 in , 0 in , 0 in
UV 0 out of 12
Pollen 6.00 out of 12
Air Quality Not available.
Flu Activity Not available.
METAR KBZN 180056Z 07004KT 9SM FEW120 21/10 A2993 RMK AO2 SLP113 T02110100

More Conditions Fewer Conditions

Pressure 29.87 in
Visibility 9.0 miles
Clouds Few 12000 ft
Dew Point 50 °F
Humidity 49%
Rainfall 0.00 in
Snow Depth 0 in , 0 in , 0 in
UV 0 out of 12
Pollen 6.00 out of 12
Air Quality Not available.
Flu Activity Not available.
METAR KBZN 180056Z 07004KT 9SM FEW120 21/10 A2993 RMK AO2 SLP113 T02110100

More Conditions Fewer Conditions

10-Day Weather Forecast

Almanac

Astronomy

Sep. 17, 2014 Rise Set
Actual Time 7:06 AM MDT 7:33 PM MDT
Civil Twilight 6:36 AM MDT 8:03 PM MDT
Nautical Twilight 6:00 AM MDT 8:38 PM MDT
Astronomical Twilight 5:23 AM MDT 9:15 PM MDT
Moon 12:55 AM MDT (9/17) 3:59 PM MDT (9/17)
Length of Visible Light 13h 26m
Length of Day
12h 26m
Tomorrow will be 3m 15s shorter.
Waning Crescent, 31% of the Moon is Illuminated
Today
Waning Crescent
Sep 24
New
Oct 1
First Quarter
Oct 8
Full
Oct 15
Last Quarter

Today's Extremes

State Highs State Lows

Community

WunderPhotos

Upload Photos

1,754,261 photos uploaded!

Nearby

Snow Depth

Station Depth Elevation
Lone Mountain 0 in 8880 ft
Kraft Creek 0 in 4750 ft
Emery Creek 0 in 4350 ft
Cole Creek 0 in 7850 ft
Wood Creek 1 in 5960 ft

Earthquake Activity

City Distance Mag. Time & Date
No recent earthquake activity has been reported nearby.
Minimum magnitude displayed is 2.5.

Coastal Water Temperatures

Place Temperature
No Stations Reporting

Nearby Weather Stations